^^
Station Historical Data
Daily Summary for January 27, 2018 Units:  English    Metric   Both
« Previous Day
Next Day »
Daily Weekly Monthly Yearly Custom
  High: Low: Average:
Temperature: TemperatureF °F 62.1 °F 76.1 °F
Dew Point: DewpointF °F 33.8 °F 44 °F
Humidity: Humidity% 18% 33%
Wind Speed: WindSpeedMPHmph 0.0mph 1.5mph
Wind Gust: WindSpeedGustMPHmph - -
Wind- - SW
Pressure: PressureIn in 29.57 in -
Precipitation: 0.00 in    
Historical Graphs
 
 
Tabular Data for January 27, 2018
Time Temperature Dew Point Pressure Wind Wind Speed Wind Gust Humidity Rainfall Rate (Hourly) solar Conditions
TemperatureF °F DewpointF °F PressureIn in Calm     Humidity% HourlyPrecipIn in SolarRadiationWatts/m^2 W/m2 Conditions
00:02 70.9 °F 37.9 °F 29.68 in SE 2.0 mph 3.0 mph 30% 0.00 in 0.0 W/m2
00:07 70.9 °F 37.9 °F 29.68 in SE 2.9 mph 4.0 mph 30% 0.00 in 0.0 W/m2
00:12 70.9 °F 37.9 °F 29.68 in Calm   3.0 mph 30% 0.00 in 0.0 W/m2
00:17 70.9 °F 37.9 °F 29.67 in Calm   1.0 mph 30% 0.00 in 0.0 W/m2
00:22 70.9 °F 37.0 °F 29.67 in SE 0.9 mph 5.0 mph 29% 0.00 in 0.0 W/m2
00:27 70.9 °F 37.9 °F 29.67 in Calm   1.0 mph 30% 0.00 in 0.0 W/m2
00:32 70.9 °F 37.9 °F 29.67 in Calm   2.0 mph 30% 0.00 in 0.0 W/m2
00:37 70.9 °F 37.9 °F 29.68 in Calm     30% 0.00 in 0.0 W/m2
00:42 70.7 °F 36.9 °F 29.68 in Calm   1.0 mph 29% 0.00 in 0.0 W/m2
00:47 70.7 °F 37.8 °F 29.68 in Calm     30% 0.00 in 0.0 W/m2
00:53 70.5 °F 37.6 °F 29.68 in Calm     30% 0.00 in 0.0 W/m2
00:58 70.3 °F 38.3 °F 29.68 in Calm     31% 0.00 in 0.0 W/m2
01:03 70.2 °F 37.2 °F 29.68 in Calm   1.0 mph 30% 0.00 in 0.0 W/m2
01:08 70.2 °F 38.1 °F 29.68 in Calm     31% 0.00 in 0.0 W/m2
01:13 70.0 °F 37.0 °F 29.68 in SSE 2.0 mph 5.0 mph 30% 0.00 in 0.0 W/m2
01:18 70.0 °F 37.0 °F 29.68 in Calm     30% 0.00 in 0.0 W/m2
01:23 70.0 °F 37.9 °F 29.68 in Calm     31% 0.00 in 0.0 W/m2
01:28 70.0 °F 37.9 °F 29.68 in Calm     31% 0.00 in 0.0 W/m2
01:34 69.6 °F 36.9 °F 29.67 in Calm   1.0 mph 30% 0.00 in 0.0 W/m2
01:39 69.6 °F 36.9 °F 29.67 in Calm   2.0 mph 30% 0.00 in 0.0 W/m2
01:44 69.6 °F 36.0 °F 29.67 in Calm     29% 0.00 in 0.0 W/m2
01:49 69.6 °F 36.0 °F 29.67 in Calm     29% 0.00 in 0.0 W/m2
01:54 69.6 °F 36.0 °F 29.67 in Calm   1.0 mph 29% 0.00 in 0.0 W/m2
01:59 69.6 °F 36.0 °F 29.67 in SE 0.9 mph 5.0 mph 29% 0.00 in 0.0 W/m2
02:04 70.0 °F 36.3 °F 29.67 in Calm   2.0 mph 29% 0.00 in 0.0 W/m2
02:09 70.0 °F 36.3 °F 29.67 in South 0.9 mph 1.0 mph 29% 0.00 in 0.0 W/m2
02:15 70.2 °F 37.2 °F 29.67 in SSE 2.0 mph 3.0 mph 30% 0.00 in 0.0 W/m2
02:20 70.3 °F 37.4 °F 29.67 in SE 0.9 mph 1.0 mph 30% 0.00 in 0.0 W/m2
02:25 70.3 °F 37.4 °F 29.67 in Calm     30% 0.00 in 0.0 W/m2
02:30 70.3 °F 37.4 °F 29.67 in Calm   4.0 mph 30% 0.00 in 0.0 W/m2
02:35 69.8 °F 37.8 °F 29.67 in ENE 4.0 mph 7.0 mph 31% 0.00 in 0.0 W/m2
02:40 69.3 °F 38.1 °F 29.67 in ENE 0.9 mph 5.0 mph 32% 0.00 in 0.0 W/m2
02:45 68.9 °F 37.8 °F 29.67 in East 2.0 mph 6.0 mph 32% 0.00 in 0.0 W/m2
02:50 68.4 °F 37.4 °F 29.68 in NNE 2.0 mph 4.0 mph 32% 0.00 in 0.0 W/m2
02:56 67.8 °F 37.6 °F 29.67 in Calm   4.0 mph 33% 0.00 in 0.0 W/m2
03:01 67.6 °F 37.6 °F 29.68 in East 0.9 mph 2.0 mph 33% 0.00 in 0.0 W/m2
03:06 67.5 °F 38.1 °F 29.68 in NE 0.9 mph 4.0 mph 34% 0.00 in 0.0 W/m2
03:11 67.3 °F 37.9 °F 29.68 in East 0.9 mph 4.0 mph 34% 0.00 in 0.0 W/m2
03:16 67.1 °F 37.8 °F 29.68 in Calm   1.0 mph 34% 0.00 in 0.0 W/m2
03:21 66.9 °F 37.6 °F 29.68 in Calm   2.0 mph 34% 0.00 in 0.0 W/m2
03:26 66.7 °F 37.4 °F 29.69 in East 0.9 mph 4.0 mph 34% 0.00 in 0.0 W/m2
03:31 66.7 °F 37.4 °F 29.69 in North 2.0 mph 6.0 mph 34% 0.00 in 0.0 W/m2
03:36 66.6 °F 37.4 °F 29.69 in Calm   3.0 mph 34% 0.00 in 0.0 W/m2
03:42 66.6 °F 37.4 °F 29.70 in Calm   1.0 mph 34% 0.00 in 0.0 W/m2
03:47 66.4 °F 37.9 °F 29.70 in Calm   2.0 mph 35% 0.00 in 0.0 W/m2
03:52 66.2 °F 37.8 °F 29.70 in Calm   1.0 mph 35% 0.00 in 0.0 W/m2
03:57 66.0 °F 37.6 °F 29.70 in Calm   1.0 mph 35% 0.00 in 0.0 W/m2
04:02 65.8 °F 37.4 °F 29.70 in ENE 0.9 mph 1.0 mph 35% 0.00 in 0.0 W/m2
04:07 65.7 °F 37.9 °F 29.69 in Calm   1.0 mph 36% 0.00 in 0.0 W/m2
04:12 65.5 °F 37.8 °F 29.70 in Calm   1.0 mph 36% 0.00 in 0.0 W/m2
04:18 65.1 °F 37.6 °F 29.69 in Calm     36% 0.00 in 0.0 W/m2
04:23 64.9 °F 36.7 °F 29.69 in Calm   3.0 mph 35% 0.00 in 0.0 W/m2
04:28 64.9 °F 36.7 °F 29.69 in Calm   1.0 mph 35% 0.00 in 0.0 W/m2
04:34 64.8 °F 37.2 °F 29.69 in Calm   1.0 mph 36% 0.00 in 0.0 W/m2
04:40 64.6 °F 37.0 °F 29.69 in Calm   2.0 mph 36% 0.00 in 0.0 W/m2
04:45 64.6 °F 37.8 °F 29.69 in Calm     37% 0.00 in 0.0 W/m2
04:50 64.2 °F 37.4 °F 29.69 in Calm     37% 0.00 in 0.0 W/m2
04:55 64.2 °F 37.4 °F 29.69 in Calm   1.0 mph 37% 0.00 in 0.0 W/m2
05:00 64.0 °F 36.5 °F 29.69 in ENE 2.0 mph 2.0 mph 36% 0.00 in 0.0 W/m2
05:05 63.9 °F 35.6 °F 29.69 in Calm   1.0 mph 35% 0.00 in 0.0 W/m2
05:10 63.9 °F 34.9 °F 29.70 in Calm   1.0 mph 34% 0.00 in 0.0 W/m2
05:15 63.9 °F 35.6 °F 29.70 in Calm     35% 0.00 in 0.0 W/m2
05:21 63.7 °F 35.6 °F 29.70 in Calm   1.0 mph 35% 0.00 in 0.0 W/m2
05:26 63.7 °F 35.6 °F 29.70 in Calm     35% 0.00 in 0.0 W/m2
05:31 63.3 °F 35.2 °F 29.70 in Calm     35% 0.00 in 0.0 W/m2
05:36 63.3 °F 36.0 °F 29.70 in Calm     36% 0.00 in 0.0 W/m2
05:41 63.3 °F 35.2 °F 29.70 in Calm   2.0 mph 35% 0.00 in 0.0 W/m2
05:46 63.1 °F 34.3 °F 29.70 in NE 0.9 mph 1.0 mph 34% 0.00 in 0.0 W/m2
05:51 63.3 °F 34.5 °F 29.70 in Calm   1.0 mph 34% 0.00 in 0.0 W/m2
05:56 63.3 °F 33.8 °F 29.70 in Calm   1.0 mph 33% 0.00 in 0.0 W/m2
06:02 63.3 °F 34.5 °F 29.71 in SSW 0.9 mph 3.0 mph 34% 0.00 in 0.0 W/m2
06:07 63.7 °F 34.7 °F 29.71 in Calm   1.0 mph 34% 0.00 in 0.0 W/m2
06:12 63.7 °F 34.7 °F 29.71 in Calm   1.0 mph 34% 0.00 in 0.0 W/m2
06:17 63.7 °F 35.6 °F 29.71 in Calm     35% 0.00 in 0.0 W/m2
06:22 63.7 °F 36.1 °F 29.71 in Calm     36% 0.00 in 0.0 W/m2
06:27 63.3 °F 36.0 °F 29.72 in Calm     36% 0.00 in 0.0 W/m2
06:32 63.3 °F 36.0 °F 29.72 in Calm   1.0 mph 36% 0.00 in 0.0 W/m2
06:37 63.0 °F 35.6 °F 29.72 in Calm     36% 0.00 in 5.0 W/m2
06:42 62.8 °F 35.4 °F 29.72 in Calm     36% 0.00 in 7.0 W/m2
06:47 62.8 °F 36.1 °F 29.72 in Calm     37% 0.00 in 9.0 W/m2
06:53 62.4 °F 35.8 °F 29.72 in Calm     37% 0.00 in 12.0 W/m2
06:58 62.4 °F 37.2 °F 29.73 in Calm     39% 0.00 in 16.0 W/m2
07:03 62.2 °F 37.0 °F 29.73 in Calm     39% 0.00 in 19.0 W/m2
07:08 62.1 °F 36.9 °F 29.73 in Calm   1.0 mph 39% 0.00 in 21.0 W/m2
07:13 62.1 °F 38.1 °F 29.74 in SSE 2.0 mph 3.0 mph 41% 0.00 in 21.0 W/m2
07:18 62.1 °F 35.4 °F 29.73 in Calm   1.0 mph 37% 0.00 in 25.0 W/m2
07:23 62.4 °F 37.2 °F 29.74 in Calm     39% 0.00 in 26.0 W/m2
07:28 62.8 °F 38.1 °F 29.74 in Calm     40% 0.00 in 28.0 W/m2
07:34 63.0 °F 37.6 °F 29.74 in Calm     39% 0.00 in 30.0 W/m2
07:39 63.1 °F 37.0 °F 29.74 in Calm     38% 0.00 in 32.0 W/m2
07:44 63.5 °F 38.7 °F 29.74 in Calm   1.0 mph 40% 0.00 in 118.0 W/m2
07:49 64.0 °F 38.7 °F 29.74 in Calm   1.0 mph 39% 0.00 in 257.0 W/m2
07:54 64.8 °F 39.9 °F 29.74 in Calm     40% 0.00 in 130.0 W/m2
07:59 65.7 °F 41.9 °F 29.74 in NE 0.9 mph 3.0 mph 42% 0.00 in 262.0 W/m2
08:04 66.7 °F 46.4 °F 29.75 in NNW 0.9 mph 3.0 mph 48% 0.00 in 220.0 W/m2
08:09 67.6 °F 45.5 °F 29.75 in Calm   1.0 mph 45% 0.00 in 355.0 W/m2
08:15 68.5 °F 43.9 °F 29.75 in NNW 4.0 mph 4.0 mph 41% 0.00 in 364.0 W/m2
08:20 69.4 °F 43.3 °F 29.75 in North 0.9 mph 3.0 mph 39% 0.00 in 343.0 W/m2
08:25 70.5 °F 41.5 °F 29.74 in Calm   2.0 mph 35% 0.00 in 353.0 W/m2
08:30 71.6 °F 46.6 °F 29.74 in NNW 2.0 mph 5.0 mph 41% 0.00 in 332.0 W/m2
08:35 72.3 °F 49.1 °F 29.74 in NNW 0.9 mph 5.0 mph 44% 0.00 in 301.0 W/m2
08:40 72.9 °F 47.8 °F 29.74 in NNW 2.0 mph 6.0 mph 41% 0.00 in 452.0 W/m2
08:45 73.2 °F 49.5 °F 29.74 in NW 4.9 mph 5.0 mph 43% 0.00 in 367.0 W/m2
08:50 73.2 °F 50.0 °F 29.74 in NNW 2.9 mph 6.0 mph 44% 0.00 in 380.0 W/m2
08:56 73.6 °F 50.9 °F 29.74 in Calm   3.0 mph 45% 0.00 in 387.0 W/m2
09:01 73.6 °F 51.4 °F 29.73 in Calm   6.0 mph 46% 0.00 in 309.0 W/m2
09:06 73.8 °F 52.3 °F 29.73 in NNW 2.0 mph 4.0 mph 47% 0.00 in 323.0 W/m2
09:11 73.9 °F 52.5 °F 29.73 in NW 2.0 mph 3.0 mph 47% 0.00 in 376.0 W/m2
09:16 74.1 °F 52.0 °F 29.73 in West 2.9 mph 3.0 mph 46% 0.00 in 360.0 W/m2
09:21 74.1 °F 52.0 °F 29.73 in NNE 2.9 mph 3.0 mph 46% 0.00 in 489.0 W/m2
09:26 74.3 °F 52.2 °F 29.72 in WSW 0.9 mph 2.0 mph 46% 0.00 in 459.0 W/m2
09:31 74.5 °F 52.3 °F 29.72 in WSW 0.9 mph 3.0 mph 46% 0.00 in 513.0 W/m2
09:36 74.7 °F 52.0 °F 29.72 in WSW 2.0 mph 5.0 mph 45% 0.00 in 541.0 W/m2
09:41 74.8 °F 52.2 °F 29.72 in Calm   1.0 mph 45% 0.00 in 520.0 W/m2
09:47 75.0 °F 51.6 °F 29.72 in Calm   3.0 mph 44% 0.00 in 543.0 W/m2
09:52 75.4 °F 51.3 °F 29.72 in NW 0.9 mph 2.0 mph 43% 0.00 in 506.0 W/m2
09:57 75.7 °F 51.1 °F 29.72 in Calm   2.0 mph 42% 0.00 in 666.0 W/m2
10:02 75.9 °F 51.8 °F 29.72 in West 2.0 mph 3.0 mph 43% 0.00 in 715.0 W/m2
10:07 76.1 °F 51.3 °F 29.72 in SW 0.9 mph 4.0 mph 42% 0.00 in 564.0 W/m2
10:12 76.1 °F 51.3 °F 29.71 in Calm   2.0 mph 42% 0.00 in 745.0 W/m2
10:17 76.3 °F 50.9 °F 29.71 in North 0.9 mph 5.0 mph 41% 0.00 in 773.0 W/m2
10:22 76.8 °F 51.3 °F 29.71 in SSW 2.9 mph 5.0 mph 41% 0.00 in 893.0 W/m2
10:28 77.2 °F 51.1 °F 29.71 in South 0.9 mph 6.0 mph 40% 0.00 in 902.0 W/m2
10:33 77.7 °F 50.7 °F 29.70 in SSW 4.0 mph 4.0 mph 39% 0.00 in 914.0 W/m2
10:38 78.6 °F 50.2 °F 29.70 in SW 2.0 mph 2.0 mph 37% 0.00 in 925.0 W/m2
10:43 79.5 °F 50.2 °F 29.70 in Calm   6.0 mph 36% 0.00 in 935.0 W/m2
10:48 79.9 °F 49.8 °F 29.70 in WSW 2.0 mph 3.0 mph 35% 0.00 in 939.0 W/m2
10:53 80.2 °F 49.3 °F 29.70 in West 2.0 mph 3.0 mph 34% 0.00 in 949.0 W/m2
10:58 81.0 °F 49.1 °F 29.70 in Calm   2.0 mph 33% 0.00 in 960.0 W/m2
11:04 82.0 °F 48.4 °F 29.70 in West 0.9 mph 7.0 mph 31% 0.00 in 916.0 W/m2
11:09 81.9 °F 48.2 °F 29.70 in WSW 2.0 mph 5.0 mph 31% 0.00 in 896.0 W/m2
11:15 81.7 °F 47.3 °F 29.69 in Calm   2.0 mph 30% 0.00 in 911.0 W/m2
11:20 82.2 °F 47.7 °F 29.69 in WSW 2.9 mph 6.0 mph 30% 0.00 in 1005.0 W/m2
11:25 82.8 °F 47.3 °F 29.70 in West 2.9 mph 7.0 mph 29% 0.00 in 969.0 W/m2
11:30 82.9 °F 46.4 °F 29.69 in West 2.0 mph 4.0 mph 28% 0.00 in 930.0 W/m2
11:35 83.7 °F 46.2 °F 29.69 in Calm   4.0 mph 27% 0.00 in 983.0 W/m2
11:40 84.6 °F 45.9 °F 29.69 in Calm   7.0 mph 26% 0.00 in 1020.0 W/m2
11:45 85.3 °F 45.5 °F 29.69 in SW 0.9 mph 2.0 mph 25% 0.00 in 986.0 W/m2
11:50 85.8 °F 45.9 °F 29.68 in SW 2.9 mph 5.0 mph 25% 0.00 in 1034.0 W/m2
11:55 85.8 °F 44.8 °F 29.68 in Calm   3.0 mph 24% 0.00 in 1039.0 W/m2
12:00 86.5 °F 45.5 °F 29.68 in NNW 0.9 mph 3.0 mph 24% 0.00 in 1027.0 W/m2
12:06 87.3 °F 45.0 °F 29.68 in SW 4.9 mph 8.0 mph 23% 0.00 in 1023.0 W/m2
12:11 87.1 °F 43.7 °F 29.68 in SSW 0.9 mph 5.0 mph 22% 0.00 in 1062.0 W/m2
12:16 87.1 °F 43.7 °F 29.68 in Calm   8.0 mph 22% 0.00 in 1041.0 W/m2
12:21 87.3 °F 43.7 °F 29.67 in SSW 2.0 mph 4.0 mph 22% 0.00 in 1053.0 W/m2
12:26 88.0 °F 43.2 °F 29.67 in Calm   6.0 mph 21% 0.00 in 981.0 W/m2
12:32 88.3 °F 43.5 °F 29.67 in WNW 0.9 mph 4.0 mph 21% 0.00 in 1074.0 W/m2
12:37 89.1 °F 44.1 °F 29.67 in WSW 2.0 mph 8.0 mph 21% 0.00 in 1060.0 W/m2
12:42 89.2 °F 44.2 °F 29.67 in NNW 0.9 mph 2.0 mph 21% 0.00 in 1074.0 W/m2
12:47 90.0 °F 44.8 °F 29.66 in NNW 4.0 mph 6.0 mph 21% 0.00 in 1093.0 W/m2
12:52 90.3 °F 45.1 °F 29.66 in NNW 2.9 mph 7.0 mph 21% 0.00 in 919.0 W/m2
12:58 90.7 °F 45.3 °F 29.66 in West 2.9 mph 3.0 mph 21% 0.00 in 1111.0 W/m2
13:03 90.9 °F 44.2 °F 29.66 in West 0.9 mph 7.0 mph 20% 0.00 in 1095.0 W/m2
13:08 90.7 °F 45.3 °F 29.66 in NNW 2.9 mph 5.0 mph 21% 0.00 in 1081.0 W/m2
13:13 91.0 °F 45.7 °F 29.65 in North 4.0 mph 8.0 mph 21% 0.00 in 1072.0 W/m2
13:18 91.6 °F 46.0 °F 29.65 in NW 2.0 mph 5.0 mph 21% 0.00 in 1076.0 W/m2
13:23 91.9 °F 45.1 °F 29.65 in NE 2.0 mph 6.0 mph 20% 0.00 in 1071.0 W/m2
13:28 91.9 °F 45.1 °F 29.65 in NW 0.9 mph 4.0 mph 20% 0.00 in 1083.0 W/m2
13:33 92.3 °F 45.5 °F 29.64 in WSW 0.9 mph 5.0 mph 20% 0.00 in 1044.0 W/m2
13:38 91.8 °F 45.0 °F 29.64 in SW 0.9 mph 4.0 mph 20% 0.00 in 867.0 W/m2
13:44 91.8 °F 45.0 °F 29.64 in WSW 2.0 mph 5.0 mph 20% 0.00 in 847.0 W/m2
13:49 92.1 °F 45.3 °F 29.64 in NNW 2.0 mph 8.0 mph 20% 0.00 in 1106.0 W/m2
13:54 92.8 °F 45.9 °F 29.63 in WNW 0.9 mph 8.0 mph 20% 0.00 in 1109.0 W/m2
13:59 92.7 °F 45.7 °F 29.63 in SSW 2.9 mph 9.0 mph 20% 0.00 in 1137.0 W/m2
14:04 92.3 °F 45.5 °F 29.63 in West 6.9 mph 9.0 mph 20% 0.00 in 1136.0 W/m2
14:09 91.8 °F 45.0 °F 29.63 in SSE 0.9 mph 12.0 mph 20% 0.00 in 1007.0 W/m2
14:14 91.6 °F 44.8 °F 29.63 in NNW 4.9 mph 9.0 mph 20% 0.00 in 926.0 W/m2
14:19 91.6 °F 44.8 °F 29.62 in WSW 4.0 mph 4.0 mph 20% 0.00 in 522.0 W/m2
14:24 91.0 °F 45.7 °F 29.62 in WSW 2.9 mph 4.0 mph 21% 0.00 in 563.0 W/m2
14:29 91.4 °F 44.8 °F 29.62 in NNW 4.9 mph 8.0 mph 20% 0.00 in 1042.0 W/m2
14:35 91.8 °F 45.0 °F 29.61 in NW 6.0 mph 6.0 mph 20% 0.00 in 476.0 W/m2
14:40 91.8 °F 45.0 °F 29.62 in North 4.0 mph 7.0 mph 20% 0.00 in 425.0 W/m2
14:45 91.9 °F 43.7 °F 29.61 in NE 2.9 mph 5.0 mph 19% 0.00 in 1181.0 W/m2
14:50 92.3 °F 44.1 °F 29.60 in Calm   5.0 mph 19% 0.00 in 1218.0 W/m2
14:55 93.0 °F 44.6 °F 29.61 in WSW 0.9 mph 3.0 mph 19% 0.00 in 983.0 W/m2
15:00 94.3 °F 44.2 °F 29.60 in SW 4.0 mph 4.0 mph 18% 0.00 in 751.0 W/m2
15:05 94.6 °F 44.6 °F 29.60 in West 6.0 mph 10.0 mph 18% 0.00 in 707.0 W/m2
15:10 94.1 °F 44.1 °F 29.59 in West 10.1 mph 10.1 mph 18% 0.00 in 383.0 W/m2
15:15 92.8 °F 44.6 °F 29.59 in SW 2.9 mph 4.0 mph 19% 0.00 in 306.0 W/m2
15:20 92.1 °F 43.9 °F 29.59 in West 2.0 mph 6.0 mph 19% 0.00 in 225.0 W/m2
15:26 91.6 °F 43.5 °F 29.59 in Calm   1.0 mph 19% 0.00 in 227.0 W/m2
15:31 91.2 °F 44.6 °F 29.59 in NNE 2.9 mph 5.0 mph 20% 0.00 in 262.0 W/m2
15:36 90.9 °F 44.2 °F 29.59 in ENE 2.0 mph 7.0 mph 20% 0.00 in 234.0 W/m2
15:41 90.3 °F 45.1 °F 29.59 in North 6.0 mph 10.0 mph 21% 0.00 in 200.0 W/m2
15:46 90.0 °F 44.8 °F 29.59 in NE 10.1 mph 10.1 mph 21% 0.00 in 158.0 W/m2
15:51 89.2 °F 44.2 °F 29.58 in NE 4.0 mph 9.0 mph 21% 0.00 in 144.0 W/m2
15:56 88.9 °F 43.9 °F 29.58 in Calm   5.0 mph 21% 0.00 in 148.0 W/m2
16:01 88.9 °F 43.9 °F 29.58 in NNE 4.0 mph 9.0 mph 21% 0.00 in 185.0 W/m2
16:06 88.7 °F 45.0 °F 29.58 in NE 4.0 mph 5.0 mph 22% 0.00 in 185.0 W/m2
16:12 88.9 °F 45.1 °F 29.58 in East 2.0 mph 7.0 mph 22% 0.00 in 165.0 W/m2
16:17 88.5 °F 44.8 °F 29.57 in ENE 0.9 mph 8.0 mph 22% 0.00 in 160.0 W/m2
16:22 88.3 °F 44.6 °F 29.57 in ENE 6.0 mph 12.0 mph 22% 0.00 in 146.0 W/m2
16:27 88.0 °F 44.4 °F 29.57 in ENE 2.0 mph 12.0 mph 22% 0.00 in 120.0 W/m2
16:32 87.6 °F 45.3 °F 29.57 in ENE 0.9 mph 4.0 mph 23% 0.00 in 100.0 W/m2
16:37 87.3 °F 45.0 °F 29.57 in NE 0.9 mph 9.0 mph 23% 0.00 in 81.0 W/m2
16:42 87.1 °F 45.9 °F 29.57 in NE 2.0 mph 10.0 mph 24% 0.00 in 69.0 W/m2
16:47 86.7 °F 45.7 °F 29.58 in Calm   5.0 mph 24% 0.00 in 60.0 W/m2
16:52 86.7 °F 45.7 °F 29.58 in WNW 0.9 mph 5.0 mph 24% 0.00 in 62.0 W/m2
16:58 86.2 °F 48.2 °F 29.58 in NNW 4.0 mph 6.0 mph 27% 0.00 in 88.0 W/m2
17:03 84.7 °F 48.9 °F 29.58 in NNW 6.9 mph 13.0 mph 29% 0.00 in 104.0 W/m2
17:08 83.8 °F 49.1 °F 29.58 in WNW 8.1 mph 12.0 mph 30% 0.00 in 97.0 W/m2
17:13 82.6 °F 48.9 °F 29.58 in WNW 2.9 mph 15.0 mph 31% 0.00 in 97.0 W/m2
17:18 81.9 °F 49.1 °F 29.58 in NNW 6.9 mph 8.0 mph 32% 0.00 in 111.0 W/m2
17:23 81.3 °F 48.6 °F 29.58 in NNW 6.9 mph 14.0 mph 32% 0.00 in 93.0 W/m2
17:28 81.1 °F 48.6 °F 29.58 in NW 4.0 mph 9.0 mph 32% 0.00 in 84.0 W/m2
17:33 81.0 °F 48.4 °F 29.58 in NW 8.1 mph 11.0 mph 32% 0.00 in 76.0 W/m2
17:38 80.8 °F 48.2 °F 29.58 in North 8.1 mph 14.0 mph 32% 0.00 in 70.0 W/m2
17:44 81.0 °F 47.5 °F 29.58 in NNW 6.0 mph 8.0 mph 31% 0.00 in 70.0 W/m2
17:49 81.0 °F 46.6 °F 29.58 in NNW 4.9 mph 11.0 mph 30% 0.00 in 70.0 W/m2
17:54 81.3 °F 46.0 °F 29.58 in NNW 6.9 mph 12.0 mph 29% 0.00 in 63.0 W/m2
17:59 81.7 °F 46.4 °F 29.59 in WNW 2.0 mph 8.0 mph 29% 0.00 in 58.0 W/m2
18:04 81.9 °F 46.4 °F 29.59 in North 0.9 mph 11.0 mph 29% 0.00 in 283.0 W/m2
18:09 82.4 °F 47.8 °F 29.59 in NW 2.0 mph 5.0 mph 30% 0.00 in 39.0 W/m2
18:14 82.4 °F 48.7 °F 29.59 in North 2.0 mph 9.0 mph 31% 0.00 in 39.0 W/m2
18:19 81.9 °F 48.2 °F 29.59 in NW 6.9 mph 8.0 mph 31% 0.00 in 40.0 W/m2
18:25 81.3 °F 48.6 °F 29.59 in NW 0.9 mph 5.0 mph 32% 0.00 in 39.0 W/m2
18:30 81.1 °F 48.6 °F 29.59 in West 2.0 mph 8.0 mph 32% 0.00 in 37.0 W/m2
18:35 80.8 °F 48.9 °F 29.59 in NW 2.9 mph 9.0 mph 33% 0.00 in 42.0 W/m2
18:40 80.6 °F 48.9 °F 29.59 in North 6.0 mph 9.0 mph 33% 0.00 in 47.0 W/m2
18:45 80.4 °F 47.8 °F 29.59 in NNW 4.9 mph 7.0 mph 32% 0.00 in 46.0 W/m2
18:50 80.6 °F 47.1 °F 29.59 in NNW 0.9 mph 3.0 mph 31% 0.00 in 44.0 W/m2
18:55 80.8 °F 47.3 °F 29.59 in WNW 0.9 mph 2.0 mph 31% 0.00 in 46.0 W/m2
19:00 80.8 °F 46.4 °F 29.60 in NW 0.9 mph 9.0 mph 30% 0.00 in 46.0 W/m2
19:06 81.0 °F 47.5 °F 29.60 in West 0.9 mph 5.0 mph 31% 0.00 in 37.0 W/m2
19:11 81.0 °F 47.5 °F 29.60 in NNW 0.9 mph 3.0 mph 31% 0.00 in 28.0 W/m2
19:17 81.0 °F 47.5 °F 29.60 in Calm     31% 0.00 in 23.0 W/m2
19:22 81.0 °F 47.5 °F 29.60 in Calm     31% 0.00 in 19.0 W/m2
19:27 81.0 °F 47.5 °F 29.60 in NE 0.9 mph 1.0 mph 31% 0.00 in 12.0 W/m2
19:32 81.0 °F 47.5 °F 29.60 in Calm   2.0 mph 31% 0.00 in 11.0 W/m2
19:37 81.0 °F 46.6 °F 29.60 in Calm   1.0 mph 30% 0.00 in 5.0 W/m2
19:42 81.0 °F 45.7 °F 29.60 in Calm     29% 0.00 in 0.0 W/m2
19:48 81.1 °F 45.9 °F 29.61 in Calm   1.0 mph 29% 0.00 in 0.0 W/m2
19:54 81.1 °F 45.9 °F 29.61 in West 2.9 mph 5.0 mph 29% 0.00 in 0.0 W/m2
19:59 81.1 °F 46.8 °F 29.62 in Calm   7.0 mph 30% 0.00 in 0.0 W/m2
20:04 81.0 °F 46.6 °F 29.62 in Calm   1.0 mph 30% 0.00 in 0.0 W/m2
20:09 81.0 °F 47.5 °F 29.63 in NNW 4.0 mph 4.0 mph 31% 0.00 in 0.0 W/m2
20:14 80.8 °F 47.3 °F 29.64 in North 4.9 mph 11.0 mph 31% 0.00 in 0.0 W/m2
20:19 80.2 °F 48.6 °F 29.64 in West 2.0 mph 9.0 mph 33% 0.00 in 0.0 W/m2
20:24 79.5 °F 49.5 °F 29.65 in WNW 4.9 mph 8.0 mph 35% 0.00 in 0.0 W/m2
20:29 78.8 °F 50.4 °F 29.65 in NNW 6.9 mph 10.0 mph 37% 0.00 in 0.0 W/m2
20:35 78.1 °F 50.4 °F 29.65 in NNE 4.0 mph 10.0 mph 38% 0.00 in 0.0 W/m2
20:40 77.5 °F 50.5 °F 29.65 in NW 2.0 mph 6.0 mph 39% 0.00 in 0.0 W/m2
20:45 77.4 °F 50.5 °F 29.65 in NNE 2.0 mph 8.0 mph 39% 0.00 in 0.0 W/m2
20:50 77.0 °F 50.2 °F 29.65 in NNE 4.0 mph 7.0 mph 39% 0.00 in 0.0 W/m2
20:55 76.8 °F 50.7 °F 29.65 in NNW 4.0 mph 7.0 mph 40% 0.00 in 0.0 W/m2
21:00 76.6 °F 50.5 °F 29.65 in NNE 2.0 mph 6.0 mph 40% 0.00 in 0.0 W/m2
21:06 76.5 °F 50.4 °F 29.66 in Calm   1.0 mph 40% 0.00 in 0.0 W/m2
21:11 76.5 °F 51.1 °F 29.66 in North 0.9 mph 5.0 mph 41% 0.00 in 0.0 W/m2
21:16 76.5 °F 51.1 °F 29.66 in NNW 2.9 mph 7.0 mph 41% 0.00 in 0.0 W/m2
21:21 76.3 °F 50.9 °F 29.67 in North 2.9 mph 5.0 mph 41% 0.00 in 0.0 W/m2
21:27 76.1 °F 50.7 °F 29.67 in Calm   6.0 mph 41% 0.00 in 0.0 W/m2
21:32 75.9 °F 51.3 °F 29.67 in NNE 0.9 mph 5.0 mph 42% 0.00 in 0.0 W/m2
21:37 75.7 °F 51.1 °F 29.67 in NNW 0.9 mph 3.0 mph 42% 0.00 in 0.0 W/m2
21:42 75.6 °F 50.9 °F 29.68 in NNW 0.9 mph 1.0 mph 42% 0.00 in 0.0 W/m2
21:47 75.6 °F 50.9 °F 29.67 in Calm   2.0 mph 42% 0.00 in 0.0 W/m2
21:52 75.4 °F 50.7 °F 29.68 in Calm   3.0 mph 42% 0.00 in 0.0 W/m2
21:57 75.2 °F 51.1 °F 29.68 in Calm     43% 0.00 in 0.0 W/m2
22:02 75.0 °F 51.1 °F 29.69 in Calm   1.0 mph 43% 0.00 in 0.0 W/m2
22:07 74.8 °F 50.9 °F 29.69 in Calm     43% 0.00 in 0.0 W/m2
22:12 74.7 °F 50.7 °F 29.69 in Calm   1.0 mph 43% 0.00 in 0.0 W/m2
22:18 74.5 °F 50.5 °F 29.70 in Calm     43% 0.00 in 0.0 W/m2
22:23 74.1 °F 50.9 °F 29.69 in Calm     44% 0.00 in 0.0 W/m2
22:28 73.9 °F 50.7 °F 29.70 in Calm     44% 0.00 in 0.0 W/m2
22:33 73.8 °F 50.5 °F 29.70 in Calm   1.0 mph 44% 0.00 in 0.0 W/m2
22:38 73.6 °F 50.4 °F 29.70 in Calm     44% 0.00 in 0.0 W/m2
22:43 73.2 °F 50.5 °F 29.70 in Calm     45% 0.00 in 0.0 W/m2
22:48 72.9 °F 50.4 °F 29.70 in Calm     45% 0.00 in 0.0 W/m2
22:53 72.5 °F 50.0 °F 29.70 in Calm     45% 0.00 in 0.0 W/m2
22:59 72.1 °F 50.2 °F 29.70 in Calm     46% 0.00 in 0.0 W/m2
23:04 72.1 °F 50.2 °F 29.70 in Calm     46% 0.00 in 0.0 W/m2
23:09 71.8 °F 49.8 °F 29.70 in Calm     46% 0.00 in 0.0 W/m2
23:14 71.4 °F 50.2 °F 29.70 in Calm     47% 0.00 in 0.0 W/m2
23:19 71.2 °F 50.0 °F 29.70 in Calm     47% 0.00 in 0.0 W/m2
23:25 70.9 °F 49.6 °F 29.70 in Calm     47% 0.00 in 0.0 W/m2
23:30 70.5 °F 49.8 °F 29.70 in Calm     48% 0.00 in 0.0 W/m2
23:35 70.3 °F 49.6 °F 29.69 in Calm     48% 0.00 in 0.0 W/m2
23:41 70.2 °F 49.6 °F 29.69 in Calm     48% 0.00 in 0.0 W/m2
23:46 70.0 °F 50.0 °F 29.69 in Calm     49% 0.00 in 0.0 W/m2
23:51 69.8 °F 49.8 °F 29.69 in Calm     49% 0.00 in 0.0 W/m2
23:57 69.6 °F 50.2 °F 29.69 in Calm     50% 0.00 in 0.0 W/m2
Olympia, Windhoek, Namibia
Compliments of Weather Underground - 3.25 mb